sensor_id;sensor_type;location;lat;lon;timestamp;P1;durP1;ratioP1;P2;durP2;ratioP2
19436;SDS011;9854;50.968;4.168;2023-05-10T00:00:39;17.25;;;9.43;;
19436;SDS011;9854;50.968;4.168;2023-05-10T00:03:05;14.57;;;9.25;;
19436;SDS011;9854;50.968;4.168;2023-05-10T00:05:31;17.35;;;9.32;;
19436;SDS011;9854;50.968;4.168;2023-05-10T00:07:58;17.20;;;9.63;;
19436;SDS011;9854;50.968;4.168;2023-05-10T00:10:24;14.70;;;8.98;;
19436;SDS011;9854;50.968;4.168;2023-05-10T00:12:50;16.02;;;9.68;;
19436;SDS011;9854;50.968;4.168;2023-05-10T00:15:16;14.95;;;9.50;;
19436;SDS011;9854;50.968;4.168;2023-05-10T00:17:42;15.48;;;9.60;;
19436;SDS011;9854;50.968;4.168;2023-05-10T00:20:09;18.15;;;9.77;;
19436;SDS011;9854;50.968;4.168;2023-05-10T00:22:35;16.63;;;10.20;;
19436;SDS011;9854;50.968;4.168;2023-05-10T00:25:02;19.88;;;9.50;;
19436;SDS011;9854;50.968;4.168;2023-05-10T00:27:28;15.27;;;9.43;;
19436;SDS011;9854;50.968;4.168;2023-05-10T00:29:54;17.80;;;9.93;;
19436;SDS011;9854;50.968;4.168;2023-05-10T00:32:20;14.85;;;9.55;;
19436;SDS011;9854;50.968;4.168;2023-05-10T00:34:46;15.93;;;9.45;;
19436;SDS011;9854;50.968;4.168;2023-05-10T00:37:13;15.35;;;9.60;;
19436;SDS011;9854;50.968;4.168;2023-05-10T00:39:39;16.08;;;9.27;;
19436;SDS011;9854;50.968;4.168;2023-05-10T00:42:05;18.60;;;9.57;;
19436;SDS011;9854;50.968;4.168;2023-05-10T00:44:31;19.45;;;9.55;;
19436;SDS011;9854;50.968;4.168;2023-05-10T00:46:57;11.52;;;8.43;;
19436;SDS011;9854;50.968;4.168;2023-05-10T00:49:24;14.77;;;10.30;;
19436;SDS011;9854;50.968;4.168;2023-05-10T00:51:50;19.83;;;9.95;;
19436;SDS011;9854;50.968;4.168;2023-05-10T00:54:17;15.68;;;10.05;;
19436;SDS011;9854;50.968;4.168;2023-05-10T00:56:43;19.92;;;10.00;;
19436;SDS011;9854;50.968;4.168;2023-05-10T00:59:14;16.08;;;10.13;;
19436;SDS011;9854;50.968;4.168;2023-05-10T01:01:42;18.00;;;10.43;;
19436;SDS011;9854;50.968;4.168;2023-05-10T01:04:08;16.40;;;10.25;;
19436;SDS011;9854;50.968;4.168;2023-05-10T01:06:37;19.80;;;9.63;;
19436;SDS011;9854;50.968;4.168;2023-05-10T01:09:04;15.35;;;10.55;;
19436;SDS011;9854;50.968;4.168;2023-05-10T01:11:31;15.57;;;10.60;;
19436;SDS011;9854;50.968;4.168;2023-05-10T01:14:01;19.42;;;11.07;;
19436;SDS011;9854;50.968;4.168;2023-05-10T01:16:29;14.18;;;11.27;;
19436;SDS011;9854;50.968;4.168;2023-05-10T01:19:02;19.73;;;11.40;;
19436;SDS011;9854;50.968;4.168;2023-05-10T01:30:30;17.67;;;12.27;;
19436;SDS011;9854;50.968;4.168;2023-05-10T01:36:58;21.60;;;12.77;;
19436;SDS011;9854;50.968;4.168;2023-05-10T01:39:11;21.10;;;13.77;;
19436;SDS011;9854;50.968;4.168;2023-05-10T01:41:49;19.30;;;13.60;;
19436;SDS011;9854;50.968;4.168;2023-05-10T01:47:06;23.75;;;14.35;;
19436;SDS011;9854;50.968;4.168;2023-05-10T01:50:10;26.73;;;15.02;;
19436;SDS011;9854;50.968;4.168;2023-05-10T01:52:30;22.25;;;14.18;;
19436;SDS011;9854;50.968;4.168;2023-05-10T01:55:04;22.73;;;14.88;;
19436;SDS011;9854;50.968;4.168;2023-05-10T01:57:33;21.02;;;15.27;;
19436;SDS011;9854;50.968;4.168;2023-05-10T02:00:01;26.90;;;16.05;;
19436;SDS011;9854;50.968;4.168;2023-05-10T02:02:33;29.15;;;17.73;;
19436;SDS011;9854;50.968;4.168;2023-05-10T02:05:05;29.50;;;18.40;;
19436;SDS011;9854;50.968;4.168;2023-05-10T02:07:33;29.60;;;19.50;;
19436;SDS011;9854;50.968;4.168;2023-05-10T02:10:04;25.58;;;18.90;;
19436;SDS011;9854;50.968;4.168;2023-05-10T02:13:05;26.73;;;19.00;;
19436;SDS011;9854;50.968;4.168;2023-05-10T02:15:24;27.60;;;19.27;;
19436;SDS011;9854;50.968;4.168;2023-05-10T02:17:52;31.52;;;20.48;;
19436;SDS011;9854;50.968;4.168;2023-05-10T02:20:20;30.00;;;20.60;;
19436;SDS011;9854;50.968;4.168;2023-05-10T02:22:49;35.95;;;20.88;;
19436;SDS011;9854;50.968;4.168;2023-05-10T02:25:18;28.75;;;20.80;;
19436;SDS011;9854;50.968;4.168;2023-05-10T02:27:46;31.27;;;21.67;;
19436;SDS011;9854;50.968;4.168;2023-05-10T02:30:13;37.85;;;21.52;;
19436;SDS011;9854;50.968;4.168;2023-05-10T02:32:41;31.35;;;20.30;;
19436;SDS011;9854;50.968;4.168;2023-05-10T02:35:08;32.25;;;20.80;;
19436;SDS011;9854;50.968;4.168;2023-05-10T02:37:36;27.05;;;19.40;;
19436;SDS011;9854;50.968;4.168;2023-05-10T02:40:04;34.38;;;20.67;;
19436;SDS011;9854;50.968;4.168;2023-05-10T02:42:32;31.33;;;19.00;;
19436;SDS011;9854;50.968;4.168;2023-05-10T02:45:01;34.13;;;19.85;;
19436;SDS011;9854;50.968;4.168;2023-05-10T02:47:32;28.52;;;19.85;;
19436;SDS011;9854;50.968;4.168;2023-05-10T02:49:58;30.50;;;20.38;;
19436;SDS011;9854;50.968;4.168;2023-05-10T02:52:29;29.20;;;20.20;;
19436;SDS011;9854;50.968;4.168;2023-05-10T02:55:00;29.23;;;19.80;;
19436;SDS011;9854;50.968;4.168;2023-05-10T02:57:29;25.67;;;20.63;;
19436;SDS011;9854;50.968;4.168;2023-05-10T02:59:58;33.80;;;21.10;;
19436;SDS011;9854;50.968;4.168;2023-05-10T03:02:26;30.83;;;21.13;;
19436;SDS011;9854;50.968;4.168;2023-05-10T03:04:53;34.42;;;20.75;;
19436;SDS011;9854;50.968;4.168;2023-05-10T03:07:19;28.92;;;20.73;;
19436;SDS011;9854;50.968;4.168;2023-05-10T03:09:46;28.13;;;20.75;;
19436;SDS011;9854;50.968;4.168;2023-05-10T03:12:35;28.30;;;20.80;;
19436;SDS011;9854;50.968;4.168;2023-05-10T03:15:42;33.78;;;20.85;;
19436;SDS011;9854;50.968;4.168;2023-05-10T03:18:22;31.90;;;22.33;;
19436;SDS011;9854;50.968;4.168;2023-05-10T03:21:04;34.13;;;24.27;;
19436;SDS011;9854;50.968;4.168;2023-05-10T03:23:44;35.97;;;24.15;;
19436;SDS011;9854;50.968;4.168;2023-05-10T03:26:17;33.95;;;22.92;;
19436;SDS011;9854;50.968;4.168;2023-05-10T03:28:47;36.78;;;24.08;;
19436;SDS011;9854;50.968;4.168;2023-05-10T03:31:15;35.78;;;23.20;;
19436;SDS011;9854;50.968;4.168;2023-05-10T03:33:48;35.58;;;23.58;;
19436;SDS011;9854;50.968;4.168;2023-05-10T03:36:15;36.97;;;24.02;;
19436;SDS011;9854;50.968;4.168;2023-05-10T03:38:42;34.25;;;24.00;;
19436;SDS011;9854;50.968;4.168;2023-05-10T03:41:08;33.40;;;23.63;;
19436;SDS011;9854;50.968;4.168;2023-05-10T03:43:34;33.70;;;22.52;;
19436;SDS011;9854;50.968;4.168;2023-05-10T03:46:04;30.65;;;22.35;;
19436;SDS011;9854;50.968;4.168;2023-05-10T03:48:30;36.05;;;22.85;;
19436;SDS011;9854;50.968;4.168;2023-05-10T03:50:57;37.85;;;25.30;;
19436;SDS011;9854;50.968;4.168;2023-05-10T03:53:24;34.90;;;23.77;;
19436;SDS011;9854;50.968;4.168;2023-05-10T03:55:50;33.80;;;23.23;;
19436;SDS011;9854;50.968;4.168;2023-05-10T03:58:16;32.80;;;24.70;;
19436;SDS011;9854;50.968;4.168;2023-05-10T04:00:43;40.85;;;24.73;;
19436;SDS011;9854;50.968;4.168;2023-05-10T04:03:10;39.10;;;25.10;;
19436;SDS011;9854;50.968;4.168;2023-05-10T04:05:37;37.30;;;25.20;;
19436;SDS011;9854;50.968;4.168;2023-05-10T04:08:03;34.75;;;23.95;;
19436;SDS011;9854;50.968;4.168;2023-05-10T04:10:30;37.38;;;24.80;;
19436;SDS011;9854;50.968;4.168;2023-05-10T04:12:56;36.30;;;23.67;;
19436;SDS011;9854;50.968;4.168;2023-05-10T04:15:22;36.42;;;24.65;;
19436;SDS011;9854;50.968;4.168;2023-05-10T04:17:49;31.25;;;23.90;;
19436;SDS011;9854;50.968;4.168;2023-05-10T04:20:15;33.05;;;24.27;;
19436;SDS011;9854;50.968;4.168;2023-05-10T04:22:41;35.20;;;25.27;;
19436;SDS011;9854;50.968;4.168;2023-05-10T04:25:08;31.75;;;22.33;;
19436;SDS011;9854;50.968;4.168;2023-05-10T04:27:34;30.85;;;22.70;;
19436;SDS011;9854;50.968;4.168;2023-05-10T04:30:00;32.88;;;22.48;;
19436;SDS011;9854;50.968;4.168;2023-05-10T04:32:27;33.75;;;22.65;;
19436;SDS011;9854;50.968;4.168;2023-05-10T04:34:53;37.55;;;22.38;;
19436;SDS011;9854;50.968;4.168;2023-05-10T04:37:19;29.05;;;21.10;;
19436;SDS011;9854;50.968;4.168;2023-05-10T04:39:46;34.30;;;22.38;;
19436;SDS011;9854;50.968;4.168;2023-05-10T04:42:12;36.28;;;22.02;;
19436;SDS011;9854;50.968;4.168;2023-05-10T04:44:39;31.15;;;21.08;;
19436;SDS011;9854;50.968;4.168;2023-05-10T04:47:06;32.10;;;21.75;;
19436;SDS011;9854;50.968;4.168;2023-05-10T04:49:32;30.17;;;21.00;;
19436;SDS011;9854;50.968;4.168;2023-05-10T04:51:58;26.88;;;20.58;;
19436;SDS011;9854;50.968;4.168;2023-05-10T04:54:24;27.45;;;20.80;;
19436;SDS011;9854;50.968;4.168;2023-05-10T04:56:51;28.40;;;21.13;;
19436;SDS011;9854;50.968;4.168;2023-05-10T04:59:17;34.22;;;19.98;;
19436;SDS011;9854;50.968;4.168;2023-05-10T05:01:43;30.65;;;21.25;;
19436;SDS011;9854;50.968;4.168;2023-05-10T05:04:09;31.52;;;20.17;;
19436;SDS011;9854;50.968;4.168;2023-05-10T05:06:35;29.67;;;21.38;;
19436;SDS011;9854;50.968;4.168;2023-05-10T05:09:02;32.63;;;21.73;;
19436;SDS011;9854;50.968;4.168;2023-05-10T05:11:28;30.30;;;21.42;;
19436;SDS011;9854;50.968;4.168;2023-05-10T05:13:54;29.55;;;21.42;;
19436;SDS011;9854;50.968;4.168;2023-05-10T05:16:21;29.63;;;20.85;;
19436;SDS011;9854;50.968;4.168;2023-05-10T05:18:47;27.60;;;21.15;;
19436;SDS011;9854;50.968;4.168;2023-05-10T05:21:16;28.80;;;20.40;;
19436;SDS011;9854;50.968;4.168;2023-05-10T05:23:43;26.75;;;20.40;;
19436;SDS011;9854;50.968;4.168;2023-05-10T05:26:09;32.05;;;21.80;;
19436;SDS011;9854;50.968;4.168;2023-05-10T05:28:35;27.00;;;20.65;;
19436;SDS011;9854;50.968;4.168;2023-05-10T05:31:06;28.92;;;21.02;;
19436;SDS011;9854;50.968;4.168;2023-05-10T05:33:35;30.40;;;21.52;;
19436;SDS011;9854;50.968;4.168;2023-05-10T05:36:02;31.38;;;21.73;;
19436;SDS011;9854;50.968;4.168;2023-05-10T05:38:31;32.20;;;22.35;;
19436;SDS011;9854;50.968;4.168;2023-05-10T05:40:57;31.40;;;23.70;;
19436;SDS011;9854;50.968;4.168;2023-05-10T05:43:24;30.55;;;22.88;;
19436;SDS011;9854;50.968;4.168;2023-05-10T05:45:51;34.38;;;22.67;;
19436;SDS011;9854;50.968;4.168;2023-05-10T05:48:18;37.95;;;24.48;;
19436;SDS011;9854;50.968;4.168;2023-05-10T05:50:45;32.03;;;23.48;;
19436;SDS011;9854;50.968;4.168;2023-05-10T05:53:11;34.55;;;24.38;;
19436;SDS011;9854;50.968;4.168;2023-05-10T05:55:37;33.03;;;23.83;;
19436;SDS011;9854;50.968;4.168;2023-05-10T05:58:03;33.53;;;25.05;;
19436;SDS011;9854;50.968;4.168;2023-05-10T06:00:30;38.47;;;25.23;;
19436;SDS011;9854;50.968;4.168;2023-05-10T06:02:56;38.10;;;26.45;;
19436;SDS011;9854;50.968;4.168;2023-05-10T06:05:22;41.25;;;26.52;;
19436;SDS011;9854;50.968;4.168;2023-05-10T06:07:48;38.72;;;28.08;;
19436;SDS011;9854;50.968;4.168;2023-05-10T06:10:14;43.42;;;28.48;;
19436;SDS011;9854;50.968;4.168;2023-05-10T06:12:41;43.28;;;28.98;;
19436;SDS011;9854;50.968;4.168;2023-05-10T06:15:07;48.00;;;30.35;;
19436;SDS011;9854;50.968;4.168;2023-05-10T06:17:33;41.30;;;28.13;;
19436;SDS011;9854;50.968;4.168;2023-05-10T06:20:00;43.83;;;29.38;;
19436;SDS011;9854;50.968;4.168;2023-05-10T06:22:29;45.25;;;28.88;;
19436;SDS011;9854;50.968;4.168;2023-05-10T06:24:55;50.20;;;28.40;;
19436;SDS011;9854;50.968;4.168;2023-05-10T06:27:22;44.45;;;27.30;;
19436;SDS011;9854;50.968;4.168;2023-05-10T06:29:48;51.10;;;28.63;;
19436;SDS011;9854;50.968;4.168;2023-05-10T06:32:14;49.67;;;28.27;;
19436;SDS011;9854;50.968;4.168;2023-05-10T06:34:40;50.53;;;28.50;;
19436;SDS011;9854;50.968;4.168;2023-05-10T06:37:08;50.78;;;28.98;;
19436;SDS011;9854;50.968;4.168;2023-05-10T06:39:34;51.42;;;29.27;;
19436;SDS011;9854;50.968;4.168;2023-05-10T06:42:01;55.05;;;30.52;;
19436;SDS011;9854;50.968;4.168;2023-05-10T06:44:29;54.65;;;31.23;;
19436;SDS011;9854;50.968;4.168;2023-05-10T06:46:55;61.35;;;31.30;;
19436;SDS011;9854;50.968;4.168;2023-05-10T06:49:21;56.25;;;31.20;;
19436;SDS011;9854;50.968;4.168;2023-05-10T06:51:47;56.65;;;29.98;;
19436;SDS011;9854;50.968;4.168;2023-05-10T06:54:14;53.50;;;29.92;;
19436;SDS011;9854;50.968;4.168;2023-05-10T06:56:40;58.33;;;31.15;;
19436;SDS011;9854;50.968;4.168;2023-05-10T06:59:06;51.42;;;30.33;;
19436;SDS011;9854;50.968;4.168;2023-05-10T07:01:32;51.50;;;31.02;;
19436;SDS011;9854;50.968;4.168;2023-05-10T07:03:58;48.80;;;30.13;;
19436;SDS011;9854;50.968;4.168;2023-05-10T07:06:25;44.95;;;28.77;;
19436;SDS011;9854;50.968;4.168;2023-05-10T07:08:51;50.42;;;30.77;;
19436;SDS011;9854;50.968;4.168;2023-05-10T07:11:17;50.35;;;29.55;;
19436;SDS011;9854;50.968;4.168;2023-05-10T07:13:42;50.35;;;29.38;;
19436;SDS011;9854;50.968;4.168;2023-05-10T07:16:09;52.42;;;28.20;;
19436;SDS011;9854;50.968;4.168;2023-05-10T07:18:35;42.72;;;26.83;;
19436;SDS011;9854;50.968;4.168;2023-05-10T07:21:01;42.28;;;24.52;;
19436;SDS011;9854;50.968;4.168;2023-05-10T07:23:27;38.85;;;23.83;;
19436;SDS011;9854;50.968;4.168;2023-05-10T07:25:53;46.63;;;23.50;;
19436;SDS011;9854;50.968;4.168;2023-05-10T07:28:18;41.60;;;22.38;;
19436;SDS011;9854;50.968;4.168;2023-05-10T07:30:44;38.17;;;22.60;;
19436;SDS011;9854;50.968;4.168;2023-05-10T07:33:25;42.50;;;22.98;;
19436;SDS011;9854;50.968;4.168;2023-05-10T07:35:53;39.55;;;22.15;;
19436;SDS011;9854;50.968;4.168;2023-05-10T07:38:18;36.28;;;23.63;;
19436;SDS011;9854;50.968;4.168;2023-05-10T07:40:44;46.05;;;23.45;;
19436;SDS011;9854;50.968;4.168;2023-05-10T07:43:10;41.63;;;22.40;;
19436;SDS011;9854;50.968;4.168;2023-05-10T07:45:44;38.38;;;22.58;;
19436;SDS011;9854;50.968;4.168;2023-05-10T07:48:36;39.22;;;23.25;;
19436;SDS011;9854;50.968;4.168;2023-05-10T07:51:02;39.10;;;22.08;;
19436;SDS011;9854;50.968;4.168;2023-05-10T07:53:28;36.40;;;23.05;;
19436;SDS011;9854;50.968;4.168;2023-05-10T07:55:54;37.45;;;22.35;;
19436;SDS011;9854;50.968;4.168;2023-05-10T07:58:23;40.72;;;23.55;;
19436;SDS011;9854;50.968;4.168;2023-05-10T08:00:49;48.85;;;22.33;;
19436;SDS011;9854;50.968;4.168;2023-05-10T08:03:15;42.75;;;23.42;;
19436;SDS011;9854;50.968;4.168;2023-05-10T08:05:41;35.85;;;22.33;;
19436;SDS011;9854;50.968;4.168;2023-05-10T08:08:07;42.50;;;24.40;;
19436;SDS011;9854;50.968;4.168;2023-05-10T08:10:32;40.35;;;23.02;;
19436;SDS011;9854;50.968;4.168;2023-05-10T08:12:58;43.17;;;23.33;;
19436;SDS011;9854;50.968;4.168;2023-05-10T08:15:24;36.05;;;20.48;;
19436;SDS011;9854;50.968;4.168;2023-05-10T08:17:51;39.30;;;21.42;;
19436;SDS011;9854;50.968;4.168;2023-05-10T08:20:17;40.35;;;19.83;;
19436;SDS011;9854;50.968;4.168;2023-05-10T08:22:44;33.22;;;17.58;;
19436;SDS011;9854;50.968;4.168;2023-05-10T08:25:10;36.08;;;17.27;;
19436;SDS011;9854;50.968;4.168;2023-05-10T08:27:36;31.65;;;17.63;;
19436;SDS011;9854;50.968;4.168;2023-05-10T08:30:02;34.78;;;17.50;;
19436;SDS011;9854;50.968;4.168;2023-05-10T08:32:28;28.95;;;16.75;;
19436;SDS011;9854;50.968;4.168;2023-05-10T08:34:53;32.42;;;17.35;;
19436;SDS011;9854;50.968;4.168;2023-05-10T08:37:20;32.35;;;15.60;;
19436;SDS011;9854;50.968;4.168;2023-05-10T08:39:47;33.92;;;15.27;;
19436;SDS011;9854;50.968;4.168;2023-05-10T08:42:13;29.52;;;14.82;;
19436;SDS011;9854;50.968;4.168;2023-05-10T08:44:44;30.77;;;15.20;;
19436;SDS011;9854;50.968;4.168;2023-05-10T08:47:13;27.73;;;13.90;;
19436;SDS011;9854;50.968;4.168;2023-05-10T08:49:41;30.00;;;15.02;;
19436;SDS011;9854;50.968;4.168;2023-05-10T08:52:08;28.63;;;16.30;;
19436;SDS011;9854;50.968;4.168;2023-05-10T08:54:38;31.52;;;15.98;;
19436;SDS011;9854;50.968;4.168;2023-05-10T08:57:04;34.78;;;16.05;;
19436;SDS011;9854;50.968;4.168;2023-05-10T08:59:30;30.08;;;16.70;;
19436;SDS011;9854;50.968;4.168;2023-05-10T09:01:56;33.47;;;16.60;;
19436;SDS011;9854;50.968;4.168;2023-05-10T09:04:23;29.50;;;17.15;;
19436;SDS011;9854;50.968;4.168;2023-05-10T09:06:50;26.77;;;16.48;;
19436;SDS011;9854;50.968;4.168;2023-05-10T09:09:17;28.52;;;15.00;;
19436;SDS011;9854;50.968;4.168;2023-05-10T09:11:44;24.35;;;15.20;;
19436;SDS011;9854;50.968;4.168;2023-05-10T09:14:10;30.02;;;15.45;;
19436;SDS011;9854;50.968;4.168;2023-05-10T09:16:38;30.90;;;15.77;;
19436;SDS011;9854;50.968;4.168;2023-05-10T09:19:05;27.42;;;15.25;;
19436;SDS011;9854;50.968;4.168;2023-05-10T09:21:31;23.33;;;15.02;;
19436;SDS011;9854;50.968;4.168;2023-05-10T09:24:02;23.25;;;15.00;;
19436;SDS011;9854;50.968;4.168;2023-05-10T09:26:32;20.65;;;14.48;;
19436;SDS011;9854;50.968;4.168;2023-05-10T09:28:59;29.52;;;15.40;;
19436;SDS011;9854;50.968;4.168;2023-05-10T09:31:42;22.80;;;14.93;;
19436;SDS011;9854;50.968;4.168;2023-05-10T09:34:31;25.63;;;14.43;;
19436;SDS011;9854;50.968;4.168;2023-05-10T09:36:58;23.08;;;15.40;;
19436;SDS011;9854;50.968;4.168;2023-05-10T09:39:33;19.77;;;13.55;;
19436;SDS011;9854;50.968;4.168;2023-05-10T09:42:07;18.00;;;13.55;;
19436;SDS011;9854;50.968;4.168;2023-05-10T09:44:34;23.73;;;13.82;;
19436;SDS011;9854;50.968;4.168;2023-05-10T09:47:00;14.45;;;12.63;;
19436;SDS011;9854;50.968;4.168;2023-05-10T09:49:27;18.55;;;13.18;;
19436;SDS011;9854;50.968;4.168;2023-05-10T09:52:03;13.77;;;12.20;;
19436;SDS011;9854;50.968;4.168;2023-05-10T09:54:30;15.13;;;11.40;;
19436;SDS011;9854;50.968;4.168;2023-05-10T09:56:56;12.48;;;11.18;;
19436;SDS011;9854;50.968;4.168;2023-05-10T09:59:22;13.70;;;10.38;;
19436;SDS011;9854;50.968;4.168;2023-05-10T10:01:51;15.70;;;10.52;;
19436;SDS011;9854;50.968;4.168;2023-05-10T10:04:20;14.57;;;9.90;;
19436;SDS011;9854;50.968;4.168;2023-05-10T10:06:47;11.88;;;9.90;;
19436;SDS011;9854;50.968;4.168;2023-05-10T10:09:27;15.25;;;10.32;;
19436;SDS011;9854;50.968;4.168;2023-05-10T10:11:53;12.55;;;10.60;;
19436;SDS011;9854;50.968;4.168;2023-05-10T10:14:19;14.32;;;11.88;;
19436;SDS011;9854;50.968;4.168;2023-05-10T10:16:46;13.63;;;11.32;;
19436;SDS011;9854;50.968;4.168;2023-05-10T10:19:14;13.88;;;11.75;;
19436;SDS011;9854;50.968;4.168;2023-05-10T10:21:40;13.45;;;11.20;;
19436;SDS011;9854;50.968;4.168;2023-05-10T10:24:05;12.63;;;11.20;;
19436;SDS011;9854;50.968;4.168;2023-05-10T10:26:34;12.20;;;11.00;;
19436;SDS011;9854;50.968;4.168;2023-05-10T10:34:47;16.42;;;11.32;;
19436;SDS011;9854;50.968;4.168;2023-05-10T10:37:13;14.90;;;11.00;;
19436;SDS011;9854;50.968;4.168;2023-05-10T10:39:38;14.30;;;11.20;;
19436;SDS011;9854;50.968;4.168;2023-05-10T10:42:04;19.45;;;11.82;;
19436;SDS011;9854;50.968;4.168;2023-05-10T10:49:27;14.45;;;11.60;;
19436;SDS011;9854;50.968;4.168;2023-05-10T10:52:13;15.68;;;11.77;;
19436;SDS011;9854;50.968;4.168;2023-05-10T10:54:39;16.98;;;11.55;;
19436;SDS011;9854;50.968;4.168;2023-05-10T10:57:13;17.60;;;12.43;;
19436;SDS011;9854;50.968;4.168;2023-05-10T10:59:43;14.02;;;12.18;;
19436;SDS011;9854;50.968;4.168;2023-05-10T11:02:09;17.13;;;12.60;;
19436;SDS011;9854;50.968;4.168;2023-05-10T11:04:41;15.65;;;13.13;;
19436;SDS011;9854;50.968;4.168;2023-05-10T11:07:17;15.77;;;12.50;;
19436;SDS011;9854;50.968;4.168;2023-05-10T11:09:45;16.85;;;12.82;;
19436;SDS011;9854;50.968;4.168;2023-05-10T11:12:12;14.27;;;12.25;;
19436;SDS011;9854;50.968;4.168;2023-05-10T11:14:37;15.23;;;11.85;;
19436;SDS011;9854;50.968;4.168;2023-05-10T11:17:21;13.82;;;11.82;;
19436;SDS011;9854;50.968;4.168;2023-05-10T11:22:50;15.30;;;11.55;;
19436;SDS011;9854;50.968;4.168;2023-05-10T11:25:20;13.98;;;11.82;;
19436;SDS011;9854;50.968;4.168;2023-05-10T11:27:51;17.98;;;11.98;;
19436;SDS011;9854;50.968;4.168;2023-05-10T11:30:17;19.67;;;11.93;;
19436;SDS011;9854;50.968;4.168;2023-05-10T11:32:43;16.65;;;11.55;;
19436;SDS011;9854;50.968;4.168;2023-05-10T11:35:09;13.02;;;10.75;;
19436;SDS011;9854;50.968;4.168;2023-05-10T11:37:36;16.17;;;11.32;;
19436;SDS011;9854;50.968;4.168;2023-05-10T11:40:07;13.73;;;11.30;;
19436;SDS011;9854;50.968;4.168;2023-05-10T11:42:36;13.02;;;11.30;;
19436;SDS011;9854;50.968;4.168;2023-05-10T11:45:02;12.82;;;10.88;;
19436;SDS011;9854;50.968;4.168;2023-05-10T11:47:28;13.45;;;10.93;;
19436;SDS011;9854;50.968;4.168;2023-05-10T11:49:54;15.85;;;10.70;;
19436;SDS011;9854;50.968;4.168;2023-05-10T11:52:19;14.45;;;10.80;;
19436;SDS011;9854;50.968;4.168;2023-05-10T11:54:50;17.90;;;11.10;;
19436;SDS011;9854;50.968;4.168;2023-05-10T11:57:18;13.77;;;11.13;;
19436;SDS011;9854;50.968;4.168;2023-05-10T11:59:46;15.40;;;11.15;;
19436;SDS011;9854;50.968;4.168;2023-05-10T12:02:13;15.02;;;11.57;;
19436;SDS011;9854;50.968;4.168;2023-05-10T12:04:38;16.08;;;11.45;;
19436;SDS011;9854;50.968;4.168;2023-05-10T12:07:04;12.57;;;10.68;;
19436;SDS011;9854;50.968;4.168;2023-05-10T12:09:30;18.23;;;11.02;;
19436;SDS011;9854;50.968;4.168;2023-05-10T12:11:56;13.05;;;11.77;;
19436;SDS011;9854;50.968;4.168;2023-05-10T12:14:25;12.48;;;11.10;;
19436;SDS011;9854;50.968;4.168;2023-05-10T12:16:51;12.43;;;10.55;;
19436;SDS011;9854;50.968;4.168;2023-05-10T12:19:20;13.75;;;11.25;;
19436;SDS011;9854;50.968;4.168;2023-05-10T12:21:46;15.85;;;11.05;;
19436;SDS011;9854;50.968;4.168;2023-05-10T12:24:12;12.43;;;10.68;;
19436;SDS011;9854;50.968;4.168;2023-05-10T12:26:38;13.68;;;10.55;;
19436;SDS011;9854;50.968;4.168;2023-05-10T12:31:53;19.67;;;11.10;;
19436;SDS011;9854;50.968;4.168;2023-05-10T12:34:32;15.20;;;11.63;;
19436;SDS011;9854;50.968;4.168;2023-05-10T12:36:59;15.48;;;12.00;;
19436;SDS011;9854;50.968;4.168;2023-05-10T12:39:26;15.18;;;11.90;;
19436;SDS011;9854;50.968;4.168;2023-05-10T12:42:02;19.70;;;11.63;;
19436;SDS011;9854;50.968;4.168;2023-05-10T12:44:28;16.40;;;11.70;;
19436;SDS011;9854;50.968;4.168;2023-05-10T12:46:53;13.15;;;11.63;;
19436;SDS011;9854;50.968;4.168;2023-05-10T12:49:19;18.58;;;12.77;;
19436;SDS011;9854;50.968;4.168;2023-05-10T12:51:45;20.05;;;11.95;;
19436;SDS011;9854;50.968;4.168;2023-05-10T12:54:10;15.35;;;12.13;;
19436;SDS011;9854;50.968;4.168;2023-05-10T12:56:36;13.82;;;11.90;;
19436;SDS011;9854;50.968;4.168;2023-05-10T12:59:02;15.63;;;12.85;;
19436;SDS011;9854;50.968;4.168;2023-05-10T13:01:27;18.38;;;12.73;;
19436;SDS011;9854;50.968;4.168;2023-05-10T13:03:53;18.65;;;12.65;;
19436;SDS011;9854;50.968;4.168;2023-05-10T13:06:19;18.25;;;12.02;;
19436;SDS011;9854;50.968;4.168;2023-05-10T13:08:44;15.68;;;12.75;;
19436;SDS011;9854;50.968;4.168;2023-05-10T13:11:10;19.20;;;13.40;;
19436;SDS011;9854;50.968;4.168;2023-05-10T13:13:36;25.80;;;12.63;;
19436;SDS011;9854;50.968;4.168;2023-05-10T13:16:01;13.23;;;11.70;;
19436;SDS011;9854;50.968;4.168;2023-05-10T13:18:27;15.02;;;11.70;;
19436;SDS011;9854;50.968;4.168;2023-05-10T13:20:53;20.20;;;13.00;;
19436;SDS011;9854;50.968;4.168;2023-05-10T13:23:19;17.58;;;13.10;;
19436;SDS011;9854;50.968;4.168;2023-05-10T13:25:45;13.88;;;12.52;;
19436;SDS011;9854;50.968;4.168;2023-05-10T13:28:10;15.27;;;12.85;;
19436;SDS011;9854;50.968;4.168;2023-05-10T13:30:36;17.08;;;13.55;;
19436;SDS011;9854;50.968;4.168;2023-05-10T13:33:02;17.65;;;13.35;;
19436;SDS011;9854;50.968;4.168;2023-05-10T13:35:27;16.27;;;14.18;;
19436;SDS011;9854;50.968;4.168;2023-05-10T13:37:53;17.75;;;14.45;;
19436;SDS011;9854;50.968;4.168;2023-05-10T13:40:21;16.58;;;13.85;;
19436;SDS011;9854;50.968;4.168;2023-05-10T13:42:47;15.80;;;14.20;;
19436;SDS011;9854;50.968;4.168;2023-05-10T13:45:12;20.05;;;14.88;;
19436;SDS011;9854;50.968;4.168;2023-05-10T13:47:38;18.48;;;14.38;;
19436;SDS011;9854;50.968;4.168;2023-05-10T13:50:04;19.48;;;15.07;;
19436;SDS011;9854;50.968;4.168;2023-05-10T13:52:30;18.17;;;13.73;;
19436;SDS011;9854;50.968;4.168;2023-05-10T13:54:56;20.98;;;14.93;;
19436;SDS011;9854;50.968;4.168;2023-05-10T13:57:22;18.33;;;13.55;;
19436;SDS011;9854;50.968;4.168;2023-05-10T13:59:49;19.30;;;15.32;;
19436;SDS011;9854;50.968;4.168;2023-05-10T14:02:14;21.38;;;14.45;;
19436;SDS011;9854;50.968;4.168;2023-05-10T14:04:40;19.10;;;13.90;;
19436;SDS011;9854;50.968;4.168;2023-05-10T14:07:06;22.38;;;14.50;;
19436;SDS011;9854;50.968;4.168;2023-05-10T14:09:32;16.92;;;13.80;;
19436;SDS011;9854;50.968;4.168;2023-05-10T14:11:57;16.58;;;13.50;;
19436;SDS011;9854;50.968;4.168;2023-05-10T14:14:23;16.65;;;13.57;;
19436;SDS011;9854;50.968;4.168;2023-05-10T14:16:49;21.73;;;13.75;;
19436;SDS011;9854;50.968;4.168;2023-05-10T14:19:15;19.10;;;13.60;;
19436;SDS011;9854;50.968;4.168;2023-05-10T14:21:41;15.80;;;14.07;;
19436;SDS011;9854;50.968;4.168;2023-05-10T14:24:06;15.40;;;13.25;;
19436;SDS011;9854;50.968;4.168;2023-05-10T14:26:32;18.50;;;13.23;;
19436;SDS011;9854;50.968;4.168;2023-05-10T14:28:59;18.75;;;13.77;;
19436;SDS011;9854;50.968;4.168;2023-05-10T14:31:25;17.35;;;14.15;;
19436;SDS011;9854;50.968;4.168;2023-05-10T14:33:50;19.65;;;12.88;;
19436;SDS011;9854;50.968;4.168;2023-05-10T14:36:16;13.80;;;12.02;;
19436;SDS011;9854;50.968;4.168;2023-05-10T14:38:42;16.42;;;14.23;;
19436;SDS011;9854;50.968;4.168;2023-05-10T14:41:08;17.80;;;14.75;;
19436;SDS011;9854;50.968;4.168;2023-05-10T14:43:34;18.95;;;15.52;;
19436;SDS011;9854;50.968;4.168;2023-05-10T14:46:00;17.63;;;15.43;;
19436;SDS011;9854;50.968;4.168;2023-05-10T14:48:25;20.17;;;16.17;;
19436;SDS011;9854;50.968;4.168;2023-05-10T14:50:51;19.05;;;15.90;;
19436;SDS011;9854;50.968;4.168;2023-05-10T14:53:17;20.88;;;15.20;;
19436;SDS011;9854;50.968;4.168;2023-05-10T14:55:43;21.92;;;14.32;;
19436;SDS011;9854;50.968;4.168;2023-05-10T14:58:09;18.75;;;12.30;;
19436;SDS011;9854;50.968;4.168;2023-05-10T15:00:34;15.18;;;10.13;;
19436;SDS011;9854;50.968;4.168;2023-05-10T15:03:00;19.27;;;11.23;;
19436;SDS011;9854;50.968;4.168;2023-05-10T15:05:26;21.75;;;10.13;;
19436;SDS011;9854;50.968;4.168;2023-05-10T15:07:51;15.32;;;9.18;;
19436;SDS011;9854;50.968;4.168;2023-05-10T15:10:17;16.00;;;9.27;;